sensor_id;sensor_type;location;lat;lon;timestamp;temperature;humidity
69895;DHT22;57172;52.034;5.090;2023-04-03T00:00:53;5.40;69.00
69895;DHT22;57172;52.034;5.090;2023-04-03T00:03:20;5.40;69.40
69895;DHT22;57172;52.034;5.090;2023-04-03T00:05:47;5.40;69.10
69895;DHT22;57172;52.034;5.090;2023-04-03T00:08:14;5.40;69.40
69895;DHT22;57172;52.034;5.090;2023-04-03T00:10:41;5.30;68.80
69895;DHT22;57172;52.034;5.090;2023-04-03T00:13:08;5.30;68.80
69895;DHT22;57172;52.034;5.090;2023-04-03T00:15:36;5.30;68.80
69895;DHT22;57172;52.034;5.090;2023-04-03T00:18:03;5.20;69.00
69895;DHT22;57172;52.034;5.090;2023-04-03T00:20:31;5.20;69.20
69895;DHT22;57172;52.034;5.090;2023-04-03T00:22:58;5.20;69.00
69895;DHT22;57172;52.034;5.090;2023-04-03T00:25:25;5.20;69.60
69895;DHT22;57172;52.034;5.090;2023-04-03T00:27:52;5.20;69.30
69895;DHT22;57172;52.034;5.090;2023-04-03T00:30:20;5.10;69.40
69895;DHT22;57172;52.034;5.090;2023-04-03T00:32:48;5.10;69.30
69895;DHT22;57172;52.034;5.090;2023-04-03T00:35:16;5.10;69.70
69895;DHT22;57172;52.034;5.090;2023-04-03T00:37:44;5.10;70.00
69895;DHT22;57172;52.034;5.090;2023-04-03T00:40:12;5.10;69.90
69895;DHT22;57172;52.034;5.090;2023-04-03T00:42:41;5.00;69.70
69895;DHT22;57172;52.034;5.090;2023-04-03T00:47:44;4.90;69.70
69895;DHT22;57172;52.034;5.090;2023-04-03T00:50:11;4.90;69.60
69895;DHT22;57172;52.034;5.090;2023-04-03T00:52:39;4.80;69.80
69895;DHT22;57172;52.034;5.090;2023-04-03T00:55:08;4.80;69.70
69895;DHT22;57172;52.034;5.090;2023-04-03T00:57:36;4.80;69.80
69895;DHT22;57172;52.034;5.090;2023-04-03T01:00:10;4.80;69.90
69895;DHT22;57172;52.034;5.090;2023-04-03T01:02:38;4.70;69.80
69895;DHT22;57172;52.034;5.090;2023-04-03T01:05:09;4.70;70.00
69895;DHT22;57172;52.034;5.090;2023-04-03T01:07:36;4.70;70.20
69895;DHT22;57172;52.034;5.090;2023-04-03T01:10:08;4.70;69.90
69895;DHT22;57172;52.034;5.090;2023-04-03T01:12:39;4.60;70.10
69895;DHT22;57172;52.034;5.090;2023-04-03T01:15:24;4.60;70.00
69895;DHT22;57172;52.034;5.090;2023-04-03T01:17:59;4.60;70.30
69895;DHT22;57172;52.034;5.090;2023-04-03T01:25:47;4.50;70.40
69895;DHT22;57172;52.034;5.090;2023-04-03T01:28:20;4.50;70.50
69895;DHT22;57172;52.034;5.090;2023-04-03T01:30:53;4.40;70.70
69895;DHT22;57172;52.034;5.090;2023-04-03T01:33:22;4.40;70.80
69895;DHT22;57172;52.034;5.090;2023-04-03T01:35:49;4.40;70.50
69895;DHT22;57172;52.034;5.090;2023-04-03T01:38:16;4.30;70.80
69895;DHT22;57172;52.034;5.090;2023-04-03T01:40:43;4.30;70.80
69895;DHT22;57172;52.034;5.090;2023-04-03T01:43:10;4.30;71.00
69895;DHT22;57172;52.034;5.090;2023-04-03T01:45:37;4.30;70.70
69895;DHT22;57172;52.034;5.090;2023-04-03T01:48:04;4.20;71.20
69895;DHT22;57172;52.034;5.090;2023-04-03T01:50:32;4.20;71.20
69895;DHT22;57172;52.034;5.090;2023-04-03T01:52:59;4.20;71.30
69895;DHT22;57172;52.034;5.090;2023-04-03T01:55:26;4.10;71.50
69895;DHT22;57172;52.034;5.090;2023-04-03T01:57:53;4.10;71.50
69895;DHT22;57172;52.034;5.090;2023-04-03T02:00:21;4.10;71.80
69895;DHT22;57172;52.034;5.090;2023-04-03T02:02:49;4.00;71.90
69895;DHT22;57172;52.034;5.090;2023-04-03T02:05:16;4.00;72.10
69895;DHT22;57172;52.034;5.090;2023-04-03T02:07:43;4.00;71.90
69895;DHT22;57172;52.034;5.090;2023-04-03T02:10:10;4.00;72.00
69895;DHT22;57172;52.034;5.090;2023-04-03T02:12:37;3.90;72.00
69895;DHT22;57172;52.034;5.090;2023-04-03T02:15:04;3.90;72.00
69895;DHT22;57172;52.034;5.090;2023-04-03T02:17:31;3.80;71.90
69895;DHT22;57172;52.034;5.090;2023-04-03T02:19:58;3.80;72.30
69895;DHT22;57172;52.034;5.090;2023-04-03T02:22:25;3.80;72.30
69895;DHT22;57172;52.034;5.090;2023-04-03T02:24:52;3.80;72.60
69895;DHT22;57172;52.034;5.090;2023-04-03T02:27:19;3.80;72.80
69895;DHT22;57172;52.034;5.090;2023-04-03T02:29:47;3.70;72.60
69895;DHT22;57172;52.034;5.090;2023-04-03T02:32:14;3.80;72.90
69895;DHT22;57172;52.034;5.090;2023-04-03T02:34:42;3.70;73.10
69895;DHT22;57172;52.034;5.090;2023-04-03T02:37:11;3.70;72.70
69895;DHT22;57172;52.034;5.090;2023-04-03T02:39:40;3.70;72.90
69895;DHT22;57172;52.034;5.090;2023-04-03T02:42:07;3.60;73.20
69895;DHT22;57172;52.034;5.090;2023-04-03T02:44:34;3.60;73.00
69895;DHT22;57172;52.034;5.090;2023-04-03T02:47:02;3.60;73.10
69895;DHT22;57172;52.034;5.090;2023-04-03T02:49:29;3.60;73.20
69895;DHT22;57172;52.034;5.090;2023-04-03T02:51:56;3.50;73.30
69895;DHT22;57172;52.034;5.090;2023-04-03T02:54:23;3.50;73.50
69895;DHT22;57172;52.034;5.090;2023-04-03T02:56:57;3.50;73.60
69895;DHT22;57172;52.034;5.090;2023-04-03T02:59:24;3.50;73.60
69895;DHT22;57172;52.034;5.090;2023-04-03T03:01:52;3.40;73.70
69895;DHT22;57172;52.034;5.090;2023-04-03T03:04:19;3.40;73.70
69895;DHT22;57172;52.034;5.090;2023-04-03T03:06:46;3.40;73.70
69895;DHT22;57172;52.034;5.090;2023-04-03T03:09:13;3.30;73.70
69895;DHT22;57172;52.034;5.090;2023-04-03T03:11:41;3.30;73.90
69895;DHT22;57172;52.034;5.090;2023-04-03T03:14:08;3.30;74.10
69895;DHT22;57172;52.034;5.090;2023-04-03T03:16:35;3.30;74.10
69895;DHT22;57172;52.034;5.090;2023-04-03T03:19:02;3.30;74.10
69895;DHT22;57172;52.034;5.090;2023-04-03T03:21:29;3.20;74.30
69895;DHT22;57172;52.034;5.090;2023-04-03T03:23:56;3.20;74.30
69895;DHT22;57172;52.034;5.090;2023-04-03T03:26:23;3.20;74.30
69895;DHT22;57172;52.034;5.090;2023-04-03T03:28:51;3.20;74.30
69895;DHT22;57172;52.034;5.090;2023-04-03T03:31:18;3.10;74.30
69895;DHT22;57172;52.034;5.090;2023-04-03T03:33:45;3.10;74.40
69895;DHT22;57172;52.034;5.090;2023-04-03T03:36:12;3.10;74.50
69895;DHT22;57172;52.034;5.090;2023-04-03T03:38:39;3.10;74.60
69895;DHT22;57172;52.034;5.090;2023-04-03T03:41:08;3.00;74.70
69895;DHT22;57172;52.034;5.090;2023-04-03T03:43:35;3.00;74.80
69895;DHT22;57172;52.034;5.090;2023-04-03T03:46:04;3.00;74.70
69895;DHT22;57172;52.034;5.090;2023-04-03T03:48:30;3.00;74.70
69895;DHT22;57172;52.034;5.090;2023-04-03T03:50:57;3.00;74.90
69895;DHT22;57172;52.034;5.090;2023-04-03T03:53:29;2.90;74.90
69895;DHT22;57172;52.034;5.090;2023-04-03T03:56:00;2.90;75.10
69895;DHT22;57172;52.034;5.090;2023-04-03T03:58:29;2.90;75.20
69895;DHT22;57172;52.034;5.090;2023-04-03T04:00:56;2.90;75.30
69895;DHT22;57172;52.034;5.090;2023-04-03T04:03:23;2.80;75.20
69895;DHT22;57172;52.034;5.090;2023-04-03T04:05:51;2.80;75.30
69895;DHT22;57172;52.034;5.090;2023-04-03T04:08:18;2.80;75.30
69895;DHT22;57172;52.034;5.090;2023-04-03T04:10:45;2.80;75.50
69895;DHT22;57172;52.034;5.090;2023-04-03T04:13:14;2.80;75.50
69895;DHT22;57172;52.034;5.090;2023-04-03T04:15:42;2.70;75.60
69895;DHT22;57172;52.034;5.090;2023-04-03T04:18:09;2.70;75.60
69895;DHT22;57172;52.034;5.090;2023-04-03T04:20:37;2.70;75.70
69895;DHT22;57172;52.034;5.090;2023-04-03T04:23:04;2.70;75.70
69895;DHT22;57172;52.034;5.090;2023-04-03T04:25:31;2.70;75.80
69895;DHT22;57172;52.034;5.090;2023-04-03T04:27:59;2.70;75.80
69895;DHT22;57172;52.034;5.090;2023-04-03T04:30:26;2.70;75.90
69895;DHT22;57172;52.034;5.090;2023-04-03T04:32:55;2.70;76.00
69895;DHT22;57172;52.034;5.090;2023-04-03T04:35:23;2.60;76.00
69895;DHT22;57172;52.034;5.090;2023-04-03T04:37:51;2.60;75.90
69895;DHT22;57172;52.034;5.090;2023-04-03T04:40:19;2.60;76.10
69895;DHT22;57172;52.034;5.090;2023-04-03T04:42:47;2.60;76.20
69895;DHT22;57172;52.034;5.090;2023-04-03T04:45:15;2.50;76.10
69895;DHT22;57172;52.034;5.090;2023-04-03T04:47:44;2.50;76.10
69895;DHT22;57172;52.034;5.090;2023-04-03T04:50:11;2.50;76.10
69895;DHT22;57172;52.034;5.090;2023-04-03T04:52:39;2.50;76.40
69895;DHT22;57172;52.034;5.090;2023-04-03T04:55:07;2.50;76.50
69895;DHT22;57172;52.034;5.090;2023-04-03T04:57:34;2.50;76.40
69895;DHT22;57172;52.034;5.090;2023-04-03T05:00:03;2.40;76.60
69895;DHT22;57172;52.034;5.090;2023-04-03T05:02:30;2.40;76.60
69895;DHT22;57172;52.034;5.090;2023-04-03T05:04:58;2.40;76.70
69895;DHT22;57172;52.034;5.090;2023-04-03T05:07:27;2.40;76.60
69895;DHT22;57172;52.034;5.090;2023-04-03T05:09:55;2.40;76.50
69895;DHT22;57172;52.034;5.090;2023-04-03T05:12:23;2.30;76.70
69895;DHT22;57172;52.034;5.090;2023-04-03T05:14:55;2.40;76.90
69895;DHT22;57172;52.034;5.090;2023-04-03T05:17:22;2.40;77.00
69895;DHT22;57172;52.034;5.090;2023-04-03T05:19:52;2.30;76.90
69895;DHT22;57172;52.034;5.090;2023-04-03T05:22:21;2.40;77.00
69895;DHT22;57172;52.034;5.090;2023-04-03T05:24:50;2.30;77.00
69895;DHT22;57172;52.034;5.090;2023-04-03T05:27:18;2.30;77.10
69895;DHT22;57172;52.034;5.090;2023-04-03T05:29:52;2.30;77.10
69895;DHT22;57172;52.034;5.090;2023-04-03T05:32:22;2.30;77.40
69895;DHT22;57172;52.034;5.090;2023-04-03T05:34:57;2.30;77.50
69895;DHT22;57172;52.034;5.090;2023-04-03T05:37:27;2.30;77.40
69895;DHT22;57172;52.034;5.090;2023-04-03T05:39:55;2.30;77.20
69895;DHT22;57172;52.034;5.090;2023-04-03T05:42:22;2.30;77.30
69895;DHT22;57172;52.034;5.090;2023-04-03T05:44:49;2.30;77.50
69895;DHT22;57172;52.034;5.090;2023-04-03T05:47:17;2.30;77.70
69895;DHT22;57172;52.034;5.090;2023-04-03T05:49:45;2.40;77.60
69895;DHT22;57172;52.034;5.090;2023-04-03T05:52:28;2.40;77.50
69895;DHT22;57172;52.034;5.090;2023-04-03T05:54:56;2.40;77.70
69895;DHT22;57172;52.034;5.090;2023-04-03T05:57:26;2.40;77.60
69895;DHT22;57172;52.034;5.090;2023-04-03T05:59:53;2.40;77.90
69895;DHT22;57172;52.034;5.090;2023-04-03T06:02:22;2.50;78.10
69895;DHT22;57172;52.034;5.090;2023-04-03T06:04:50;2.50;78.10
69895;DHT22;57172;52.034;5.090;2023-04-03T06:07:21;2.50;78.00
69895;DHT22;57172;52.034;5.090;2023-04-03T06:09:50;2.60;78.00
69895;DHT22;57172;52.034;5.090;2023-04-03T06:12:18;2.60;78.00
69895;DHT22;57172;52.034;5.090;2023-04-03T06:14:45;2.60;78.00
69895;DHT22;57172;52.034;5.090;2023-04-03T06:17:15;2.60;77.80
69895;DHT22;57172;52.034;5.090;2023-04-03T06:19:42;2.60;77.60
69895;DHT22;57172;52.034;5.090;2023-04-03T06:22:10;2.60;77.60
69895;DHT22;57172;52.034;5.090;2023-04-03T06:24:38;2.70;77.90
69895;DHT22;57172;52.034;5.090;2023-04-03T06:27:05;2.70;77.90
69895;DHT22;57172;52.034;5.090;2023-04-03T06:29:32;2.80;77.70
69895;DHT22;57172;52.034;5.090;2023-04-03T06:31:59;2.80;77.60
69895;DHT22;57172;52.034;5.090;2023-04-03T06:34:26;2.80;77.30
69895;DHT22;57172;52.034;5.090;2023-04-03T06:36:53;2.80;77.50
69895;DHT22;57172;52.034;5.090;2023-04-03T06:39:21;2.90;77.40
69895;DHT22;57172;52.034;5.090;2023-04-03T06:41:49;2.90;77.30
69895;DHT22;57172;52.034;5.090;2023-04-03T06:44:24;3.00;77.40
69895;DHT22;57172;52.034;5.090;2023-04-03T06:46:52;3.00;77.40
69895;DHT22;57172;52.034;5.090;2023-04-03T06:49:20;3.10;77.00
69895;DHT22;57172;52.034;5.090;2023-04-03T06:51:48;3.10;77.20
69895;DHT22;57172;52.034;5.090;2023-04-03T06:54:15;3.20;77.40
69895;DHT22;57172;52.034;5.090;2023-04-03T06:56:42;3.20;77.30
69895;DHT22;57172;52.034;5.090;2023-04-03T06:59:10;3.30;77.00
69895;DHT22;57172;52.034;5.090;2023-04-03T07:01:39;3.30;77.00
69895;DHT22;57172;52.034;5.090;2023-04-03T07:04:07;3.40;77.10
69895;DHT22;57172;52.034;5.090;2023-04-03T07:06:34;3.50;76.70
69895;DHT22;57172;52.034;5.090;2023-04-03T07:09:02;3.50;76.70
69895;DHT22;57172;52.034;5.090;2023-04-03T07:11:29;3.60;76.50
69895;DHT22;57172;52.034;5.090;2023-04-03T07:13:56;3.60;76.50
69895;DHT22;57172;52.034;5.090;2023-04-03T07:16:23;3.70;76.10
69895;DHT22;57172;52.034;5.090;2023-04-03T07:18:50;3.70;76.00
69895;DHT22;57172;52.034;5.090;2023-04-03T07:21:17;3.80;76.30
69895;DHT22;57172;52.034;5.090;2023-04-03T07:23:44;3.90;76.00
69895;DHT22;57172;52.034;5.090;2023-04-03T07:26:11;3.90;75.60
69895;DHT22;57172;52.034;5.090;2023-04-03T07:28:38;4.00;75.30
69895;DHT22;57172;52.034;5.090;2023-04-03T07:31:10;4.10;75.30
69895;DHT22;57172;52.034;5.090;2023-04-03T07:33:39;4.10;74.90
69895;DHT22;57172;52.034;5.090;2023-04-03T07:36:07;4.20;74.50
69895;DHT22;57172;52.034;5.090;2023-04-03T07:38:35;4.30;75.00
69895;DHT22;57172;52.034;5.090;2023-04-03T07:41:03;4.40;75.40
69895;DHT22;57172;52.034;5.090;2023-04-03T07:43:30;4.60;77.00
69895;DHT22;57172;52.034;5.090;2023-04-03T07:45:57;5.00;81.50
69895;DHT22;57172;52.034;5.090;2023-04-03T07:48:25;5.60;89.40
69895;DHT22;57172;52.034;5.090;2023-04-03T07:50:52;6.30;92.60
69895;DHT22;57172;52.034;5.090;2023-04-03T07:53:19;6.80;93.80
69895;DHT22;57172;52.034;5.090;2023-04-03T07:55:47;7.40;93.70
69895;DHT22;57172;52.034;5.090;2023-04-03T07:58:17;8.00;94.40
69895;DHT22;57172;52.034;5.090;2023-04-03T08:00:45;8.80;96.10
69895;DHT22;57172;52.034;5.090;2023-04-03T08:03:13;9.40;94.40
69895;DHT22;57172;52.034;5.090;2023-04-03T08:05:42;9.90;89.60
69895;DHT22;57172;52.034;5.090;2023-04-03T08:08:11;10.40;91.40
69895;DHT22;57172;52.034;5.090;2023-04-03T08:10:38;11.00;89.50
69895;DHT22;57172;52.034;5.090;2023-04-03T08:13:05;11.60;88.90
69895;DHT22;57172;52.034;5.090;2023-04-03T08:15:32;11.90;80.00
69895;DHT22;57172;52.034;5.090;2023-04-03T08:18:00;12.30;82.60
69895;DHT22;57172;52.034;5.090;2023-04-03T08:20:28;12.70;79.30
69895;DHT22;57172;52.034;5.090;2023-04-03T08:22:55;13.10;78.50
69895;DHT22;57172;52.034;5.090;2023-04-03T08:25:22;13.40;76.90
69895;DHT22;57172;52.034;5.090;2023-04-03T08:27:49;13.80;77.10
69895;DHT22;57172;52.034;5.090;2023-04-03T08:30:16;14.00;74.40
69895;DHT22;57172;52.034;5.090;2023-04-03T08:32:43;14.30;72.10
69895;DHT22;57172;52.034;5.090;2023-04-03T08:35:11;14.50;73.40
69895;DHT22;57172;52.034;5.090;2023-04-03T08:37:39;15.00;73.50
69895;DHT22;57172;52.034;5.090;2023-04-03T08:40:10;15.40;68.50
69895;DHT22;57172;52.034;5.090;2023-04-03T08:45:53;16.40;62.40
69895;DHT22;57172;52.034;5.090;2023-04-03T08:48:34;17.00;56.40
69895;DHT22;57172;52.034;5.090;2023-04-03T08:51:15;17.10;52.70
69895;DHT22;57172;52.034;5.090;2023-04-03T08:54:01;17.30;50.70
69895;DHT22;57172;52.034;5.090;2023-04-03T08:56:31;17.50;46.80
69895;DHT22;57172;52.034;5.090;2023-04-03T08:59:04;17.70;49.40
69895;DHT22;57172;52.034;5.090;2023-04-03T09:01:36;18.10;46.30
69895;DHT22;57172;52.034;5.090;2023-04-03T09:04:12;18.20;41.40
69895;DHT22;57172;52.034;5.090;2023-04-03T09:06:42;17.90;41.50
69895;DHT22;57172;52.034;5.090;2023-04-03T09:09:21;18.10;43.10
69895;DHT22;57172;52.034;5.090;2023-04-03T09:19:54;19.30;38.10
69895;DHT22;57172;52.034;5.090;2023-04-03T09:22:28;19.40;35.20
69895;DHT22;57172;52.034;5.090;2023-04-03T09:25:07;19.10;34.20
69895;DHT22;57172;52.034;5.090;2023-04-03T09:27:37;18.80;33.40
69895;DHT22;57172;52.034;5.090;2023-04-03T09:30:04;18.80;33.40
69895;DHT22;57172;52.034;5.090;2023-04-03T09:32:34;18.80;32.60
69895;DHT22;57172;52.034;5.090;2023-04-03T09:35:04;19.00;31.80
69895;DHT22;57172;52.034;5.090;2023-04-03T09:37:51;19.30;31.60
69895;DHT22;57172;52.034;5.090;2023-04-03T09:40:33;19.60;31.10
69895;DHT22;57172;52.034;5.090;2023-04-03T09:45:48;20.10;30.50
69895;DHT22;57172;52.034;5.090;2023-04-03T09:48:16;20.30;30.40
69895;DHT22;57172;52.034;5.090;2023-04-03T09:53:35;20.50;28.30
69895;DHT22;57172;52.034;5.090;2023-04-03T09:58:47;20.80;28.50
69895;DHT22;57172;52.034;5.090;2023-04-03T10:01:30;20.80;28.10
69895;DHT22;57172;52.034;5.090;2023-04-03T10:06:45;21.30;27.30
69895;DHT22;57172;52.034;5.090;2023-04-03T10:14:26;22.00;25.80
69895;DHT22;57172;52.034;5.090;2023-04-03T10:19:57;21.90;26.70
69895;DHT22;57172;52.034;5.090;2023-04-03T10:22:37;22.50;27.20
69895;DHT22;57172;52.034;5.090;2023-04-03T10:25:14;23.20;25.20
69895;DHT22;57172;52.034;5.090;2023-04-03T10:33:27;23.00;25.70
69895;DHT22;57172;52.034;5.090;2023-04-03T10:44:42;23.70;24.50
69895;DHT22;57172;52.034;5.090;2023-04-03T10:47:21;24.20;24.00
69895;DHT22;57172;52.034;5.090;2023-04-03T10:49:56;24.10;23.30
69895;DHT22;57172;52.034;5.090;2023-04-03T10:55:34;24.10;23.30
69895;DHT22;57172;52.034;5.090;2023-04-03T10:58:03;23.90;22.10
69895;DHT22;57172;52.034;5.090;2023-04-03T11:00:47;23.80;23.30
69895;DHT22;57172;52.034;5.090;2023-04-03T11:03:27;24.10;22.80
69895;DHT22;57172;52.034;5.090;2023-04-03T11:06:02;24.20;21.90
69895;DHT22;57172;52.034;5.090;2023-04-03T11:08:44;24.10;21.80
69895;DHT22;57172;52.034;5.090;2023-04-03T11:11:16;24.00;20.70
69895;DHT22;57172;52.034;5.090;2023-04-03T11:14:11;23.50;21.80
69895;DHT22;57172;52.034;5.090;2023-04-03T11:16:49;23.40;21.10
69895;DHT22;57172;52.034;5.090;2023-04-03T11:19:26;23.10;21.90
69895;DHT22;57172;52.034;5.090;2023-04-03T11:24:53;24.30;22.50
69895;DHT22;57172;52.034;5.090;2023-04-03T11:27:23;24.90;22.00
69895;DHT22;57172;52.034;5.090;2023-04-03T11:29:52;25.00;21.60
69895;DHT22;57172;52.034;5.090;2023-04-03T11:35:25;24.90;22.40
69895;DHT22;57172;52.034;5.090;2023-04-03T11:37:53;25.60;22.80
69895;DHT22;57172;52.034;5.090;2023-04-03T11:40:33;26.10;22.60
69895;DHT22;57172;52.034;5.090;2023-04-03T11:45:52;26.20;21.60
69895;DHT22;57172;52.034;5.090;2023-04-03T11:53:36;26.50;21.90
69895;DHT22;57172;52.034;5.090;2023-04-03T11:58:34;26.90;21.10
69895;DHT22;57172;52.034;5.090;2023-04-03T12:01:07;26.60;21.80
69895;DHT22;57172;52.034;5.090;2023-04-03T12:08:47;26.60;22.70
69895;DHT22;57172;52.034;5.090;2023-04-03T12:11:30;26.80;22.40
69895;DHT22;57172;52.034;5.090;2023-04-03T12:24:30;25.00;22.60
69895;DHT22;57172;52.034;5.090;2023-04-03T12:51:25;25.70;22.20
69895;DHT22;57172;52.034;5.090;2023-04-03T12:54:02;25.60;22.10
69895;DHT22;57172;52.034;5.090;2023-04-03T12:56:31;25.90;22.90
69895;DHT22;57172;52.034;5.090;2023-04-03T13:01:57;26.10;22.40
69895;DHT22;57172;52.034;5.090;2023-04-03T13:04:25;26.10;22.20
69895;DHT22;57172;52.034;5.090;2023-04-03T13:06:52;25.90;22.60
69895;DHT22;57172;52.034;5.090;2023-04-03T13:09:25;26.00;22.70
69895;DHT22;57172;52.034;5.090;2023-04-03T13:12:01;26.10;22.70
69895;DHT22;57172;52.034;5.090;2023-04-03T13:14:30;26.40;22.40
69895;DHT22;57172;52.034;5.090;2023-04-03T13:17:10;26.50;22.30
69895;DHT22;57172;52.034;5.090;2023-04-03T13:19:39;26.50;22.20
69895;DHT22;57172;52.034;5.090;2023-04-03T13:22:33;26.20;21.60
69895;DHT22;57172;52.034;5.090;2023-04-03T13:25:07;25.70;21.80
69895;DHT22;57172;52.034;5.090;2023-04-03T13:27:36;25.30;21.90
69895;DHT22;57172;52.034;5.090;2023-04-03T13:30:06;25.30;22.40
69895;DHT22;57172;52.034;5.090;2023-04-03T13:32:33;25.30;22.00
69895;DHT22;57172;52.034;5.090;2023-04-03T13:35:01;25.20;22.10
69895;DHT22;57172;52.034;5.090;2023-04-03T13:37:54;25.00;22.30
69895;DHT22;57172;52.034;5.090;2023-04-03T13:40:22;25.00;21.20
69895;DHT22;57172;52.034;5.090;2023-04-03T13:43:06;24.70;21.80
69895;DHT22;57172;52.034;5.090;2023-04-03T13:45:59;25.00;22.80
69895;DHT22;57172;52.034;5.090;2023-04-03T13:51:24;25.10;22.70
69895;DHT22;57172;52.034;5.090;2023-04-03T13:54:01;25.00;22.20
69895;DHT22;57172;52.034;5.090;2023-04-03T13:56:39;24.90;22.10
69895;DHT22;57172;52.034;5.090;2023-04-03T14:01:49;25.40;22.00
69895;DHT22;57172;52.034;5.090;2023-04-03T14:04:26;25.40;22.10
69895;DHT22;57172;52.034;5.090;2023-04-03T14:06:54;25.20;22.00
69895;DHT22;57172;52.034;5.090;2023-04-03T14:09:23;25.00;22.30
69895;DHT22;57172;52.034;5.090;2023-04-03T14:11:54;25.00;23.00
69895;DHT22;57172;52.034;5.090;2023-04-03T14:14:27;25.30;23.20
69895;DHT22;57172;52.034;5.090;2023-04-03T14:16:59;25.40;22.10
69895;DHT22;57172;52.034;5.090;2023-04-03T14:19:33;25.20;22.50
69895;DHT22;57172;52.034;5.090;2023-04-03T14:22:05;25.00;22.00
69895;DHT22;57172;52.034;5.090;2023-04-03T14:24:33;24.80;22.20
69895;DHT22;57172;52.034;5.090;2023-04-03T14:27:01;24.50;22.00
69895;DHT22;57172;52.034;5.090;2023-04-03T14:29:28;24.20;22.30
69895;DHT22;57172;52.034;5.090;2023-04-03T14:31:55;23.90;22.90
69895;DHT22;57172;52.034;5.090;2023-04-03T14:34:42;24.10;23.00
69895;DHT22;57172;52.034;5.090;2023-04-03T14:37:15;24.20;22.80
69895;DHT22;57172;52.034;5.090;2023-04-03T14:39:43;24.10;23.00
69895;DHT22;57172;52.034;5.090;2023-04-03T14:42:17;24.00;23.10
69895;DHT22;57172;52.034;5.090;2023-04-03T14:44:44;23.70;23.00
69895;DHT22;57172;52.034;5.090;2023-04-03T14:47:13;23.70;23.40
69895;DHT22;57172;52.034;5.090;2023-04-03T14:49:56;23.70;23.90
69895;DHT22;57172;52.034;5.090;2023-04-03T14:52:27;23.80;23.70
69895;DHT22;57172;52.034;5.090;2023-04-03T14:54:55;23.90;23.30
69895;DHT22;57172;52.034;5.090;2023-04-03T14:57:24;23.50;23.10
69895;DHT22;57172;52.034;5.090;2023-04-03T14:59:52;23.40;23.40
69895;DHT22;57172;52.034;5.090;2023-04-03T15:02:31;23.40;23.30
69895;DHT22;57172;52.034;5.090;2023-04-03T15:05:01;23.50;23.20
69895;DHT22;57172;52.034;5.090;2023-04-03T15:07:33;23.50;23.60
69895;DHT22;57172;52.034;5.090;2023-04-03T15:10:28;23.40;24.20
69895;DHT22;57172;52.034;5.090;2023-04-03T15:12:56;23.30;24.40
69895;DHT22;57172;52.034;5.090;2023-04-03T15:15:24;23.30;24.20
69895;DHT22;57172;52.034;5.090;2023-04-03T15:17:54;23.50;24.00
69895;DHT22;57172;52.034;5.090;2023-04-03T15:20:24;23.50;23.90
69895;DHT22;57172;52.034;5.090;2023-04-03T15:22:51;23.30;23.90
69895;DHT22;57172;52.034;5.090;2023-04-03T15:25:18;22.90;23.80
69895;DHT22;57172;52.034;5.090;2023-04-03T15:27:45;22.60;24.40
69895;DHT22;57172;52.034;5.090;2023-04-03T15:30:17;22.40;24.50
69895;DHT22;57172;52.034;5.090;2023-04-03T15:32:44;22.20;24.10
69895;DHT22;57172;52.034;5.090;2023-04-03T15:35:11;21.80;24.50
69895;DHT22;57172;52.034;5.090;2023-04-03T15:37:38;21.70;24.40
69895;DHT22;57172;52.034;5.090;2023-04-03T15:40:06;21.40;24.90
69895;DHT22;57172;52.034;5.090;2023-04-03T15:42:33;21.40;25.10
69895;DHT22;57172;52.034;5.090;2023-04-03T15:45:00;21.40;25.00
69895;DHT22;57172;52.034;5.090;2023-04-03T15:47:27;21.10;25.00
69895;DHT22;57172;52.034;5.090;2023-04-03T15:49:55;20.70;24.60
69895;DHT22;57172;52.034;5.090;2023-04-03T15:52:22;20.40;25.40
69895;DHT22;57172;52.034;5.090;2023-04-03T15:54:49;20.30;25.50
69895;DHT22;57172;52.034;5.090;2023-04-03T15:57:16;20.20;25.30
69895;DHT22;57172;52.034;5.090;2023-04-03T15:59:44;20.10;25.50
69895;DHT22;57172;52.034;5.090;2023-04-03T16:02:12;19.80;25.80
69895;DHT22;57172;52.034;5.090;2023-04-03T16:04:40;19.70;25.90
69895;DHT22;57172;52.034;5.090;2023-04-03T16:07:07;19.50;26.30
69895;DHT22;57172;52.034;5.090;2023-04-03T16:09:35;19.70;26.90
69895;DHT22;57172;52.034;5.090;2023-04-03T16:12:02;19.80;26.50
69895;DHT22;57172;52.034;5.090;2023-04-03T16:14:29;19.70;26.20
69895;DHT22;57172;52.034;5.090;2023-04-03T16:16:58;19.40;26.60
69895;DHT22;57172;52.034;5.090;2023-04-03T16:19:29;19.30;26.50
69895;DHT22;57172;52.034;5.090;2023-04-03T16:21:56;19.40;26.70
69895;DHT22;57172;52.034;5.090;2023-04-03T16:24:23;19.20;26.70
69895;DHT22;57172;52.034;5.090;2023-04-03T16:26:50;19.00;27.10
69895;DHT22;57172;52.034;5.090;2023-04-03T16:29:17;18.70;26.90
69895;DHT22;57172;52.034;5.090;2023-04-03T16:31:44;18.40;27.50
69895;DHT22;57172;52.034;5.090;2023-04-03T16:34:12;18.00;27.70
69895;DHT22;57172;52.034;5.090;2023-04-03T16:36:38;17.90;28.20
69895;DHT22;57172;52.034;5.090;2023-04-03T16:39:05;17.90;28.20
69895;DHT22;57172;52.034;5.090;2023-04-03T16:41:32;17.80;28.20
69895;DHT22;57172;52.034;5.090;2023-04-03T16:43:59;17.60;28.50
69895;DHT22;57172;52.034;5.090;2023-04-03T16:46:26;17.50;28.10
69895;DHT22;57172;52.034;5.090;2023-04-03T16:48:53;17.10;28.60
69895;DHT22;57172;52.034;5.090;2023-04-03T16:51:20;17.00;28.80
69895;DHT22;57172;52.034;5.090;2023-04-03T16:53:47;17.00;29.10
69895;DHT22;57172;52.034;5.090;2023-04-03T16:56:14;17.00;29.20
69895;DHT22;57172;52.034;5.090;2023-04-03T16:58:41;17.10;29.00
69895;DHT22;57172;52.034;5.090;2023-04-03T17:01:14;17.10;29.00
69895;DHT22;57172;52.034;5.090;2023-04-03T17:03:41;16.90;29.10
69895;DHT22;57172;52.034;5.090;2023-04-03T17:06:10;16.80;29.50
69895;DHT22;57172;52.034;5.090;2023-04-03T17:08:43;16.70;29.50
69895;DHT22;57172;52.034;5.090;2023-04-03T17:11:25;16.50;29.50
69895;DHT22;57172;52.034;5.090;2023-04-03T17:13:52;16.00;29.90
69895;DHT22;57172;52.034;5.090;2023-04-03T17:16:19;15.80;30.60
69895;DHT22;57172;52.034;5.090;2023-04-03T17:18:47;15.60;30.60
69895;DHT22;57172;52.034;5.090;2023-04-03T17:21:15;15.40;30.70
69895;DHT22;57172;52.034;5.090;2023-04-03T17:23:44;15.30;30.80
69895;DHT22;57172;52.034;5.090;2023-04-03T17:26:11;15.10;31.20
69895;DHT22;57172;52.034;5.090;2023-04-03T17:28:39;14.80;31.10
69895;DHT22;57172;52.034;5.090;2023-04-03T17:31:08;14.40;31.50
69895;DHT22;57172;52.034;5.090;2023-04-03T17:33:35;14.00;32.10
69895;DHT22;57172;52.034;5.090;2023-04-03T17:36:03;13.70;32.20
69895;DHT22;57172;52.034;5.090;2023-04-03T17:38:31;13.40;32.70
69895;DHT22;57172;52.034;5.090;2023-04-03T17:41:03;13.00;33.10
69895;DHT22;57172;52.034;5.090;2023-04-03T17:43:31;12.60;33.70
69895;DHT22;57172;52.034;5.090;2023-04-03T17:46:04;12.30;34.20
69895;DHT22;57172;52.034;5.090;2023-04-03T17:48:33;12.10;34.70
69895;DHT22;57172;52.034;5.090;2023-04-03T17:51:05;11.90;35.00
69895;DHT22;57172;52.034;5.090;2023-04-03T17:53:32;11.70;35.10